sensor_id;sensor_type;location;lat;lon;timestamp;P1;durP1;ratioP1;P2;durP2;ratioP2
68655;SDS011;55638;51.122;13.606;2023-04-24T00:00:26;3.80;;;3.40;;
68655;SDS011;55638;51.122;13.606;2023-04-24T00:01:58;4.55;;;3.58;;
68655;SDS011;55638;51.122;13.606;2023-04-24T00:03:30;3.10;;;2.80;;
68655;SDS011;55638;51.122;13.606;2023-04-24T00:05:03;3.63;;;2.80;;
68655;SDS011;55638;51.122;13.606;2023-04-24T00:06:38;3.53;;;2.97;;
68655;SDS011;55638;51.122;13.606;2023-04-24T00:08:14;2.70;;;2.40;;
68655;SDS011;55638;51.122;13.606;2023-04-24T00:09:46;3.33;;;3.03;;
68655;SDS011;55638;51.122;13.606;2023-04-24T00:11:18;2.88;;;2.67;;
68655;SDS011;55638;51.122;13.606;2023-04-24T00:12:50;4.13;;;3.30;;
68655;SDS011;55638;51.122;13.606;2023-04-24T00:14:22;3.55;;;3.25;;
68655;SDS011;55638;51.122;13.606;2023-04-24T00:15:54;3.70;;;3.40;;
68655;SDS011;55638;51.122;13.606;2023-04-24T00:17:27;4.15;;;3.65;;
68655;SDS011;55638;51.122;13.606;2023-04-24T00:18:58;3.58;;;3.22;;
68655;SDS011;55638;51.122;13.606;2023-04-24T00:20:32;4.00;;;3.60;;
68655;SDS011;55638;51.122;13.606;2023-04-24T00:22:04;3.45;;;3.10;;
68655;SDS011;55638;51.122;13.606;2023-04-24T00:23:36;3.58;;;3.25;;
68655;SDS011;55638;51.122;13.606;2023-04-24T00:25:08;4.13;;;3.40;;
68655;SDS011;55638;51.122;13.606;2023-04-24T00:26:40;3.97;;;3.45;;
68655;SDS011;55638;51.122;13.606;2023-04-24T00:28:12;4.03;;;3.63;;
68655;SDS011;55638;51.122;13.606;2023-04-24T00:29:44;3.17;;;2.88;;
68655;SDS011;55638;51.122;13.606;2023-04-24T00:31:16;3.90;;;3.05;;
68655;SDS011;55638;51.122;13.606;2023-04-24T00:32:48;3.25;;;2.53;;
68655;SDS011;55638;51.122;13.606;2023-04-24T00:34:21;4.35;;;2.90;;
68655;SDS011;55638;51.122;13.606;2023-04-24T00:35:53;3.88;;;3.08;;
68655;SDS011;55638;51.122;13.606;2023-04-24T00:37:25;4.03;;;3.45;;
68655;SDS011;55638;51.122;13.606;2023-04-24T00:38:57;3.75;;;3.25;;
68655;SDS011;55638;51.122;13.606;2023-04-24T00:40:28;4.40;;;3.35;;
68655;SDS011;55638;51.122;13.606;2023-04-24T00:42:01;5.32;;;3.50;;
68655;SDS011;55638;51.122;13.606;2023-04-24T00:43:34;4.05;;;2.97;;
68655;SDS011;55638;51.122;13.606;2023-04-24T00:45:06;3.33;;;3.03;;
68655;SDS011;55638;51.122;13.606;2023-04-24T00:46:39;3.60;;;2.70;;
68655;SDS011;55638;51.122;13.606;2023-04-24T00:48:11;3.40;;;2.72;;
68655;SDS011;55638;51.122;13.606;2023-04-24T00:49:44;4.00;;;2.70;;
68655;SDS011;55638;51.122;13.606;2023-04-24T00:51:16;3.60;;;2.60;;
68655;SDS011;55638;51.122;13.606;2023-04-24T00:52:49;2.88;;;2.30;;
68655;SDS011;55638;51.122;13.606;2023-04-24T00:54:22;2.63;;;2.40;;
68655;SDS011;55638;51.122;13.606;2023-04-24T00:55:55;3.42;;;2.80;;
68655;SDS011;55638;51.122;13.606;2023-04-24T00:57:27;3.72;;;2.63;;
68655;SDS011;55638;51.122;13.606;2023-04-24T00:59:00;3.25;;;2.40;;
68655;SDS011;55638;51.122;13.606;2023-04-24T01:00:32;2.80;;;2.60;;
68655;SDS011;55638;51.122;13.606;2023-04-24T01:02:04;3.17;;;2.53;;
68655;SDS011;55638;51.122;13.606;2023-04-24T01:03:37;3.47;;;2.80;;
68655;SDS011;55638;51.122;13.606;2023-04-24T01:05:09;3.70;;;2.70;;
68655;SDS011;55638;51.122;13.606;2023-04-24T01:06:41;2.58;;;2.35;;
68655;SDS011;55638;51.122;13.606;2023-04-24T01:08:15;3.97;;;2.88;;
68655;SDS011;55638;51.122;13.606;2023-04-24T01:09:48;3.63;;;2.63;;
68655;SDS011;55638;51.122;13.606;2023-04-24T01:11:22;3.13;;;2.83;;
68655;SDS011;55638;51.122;13.606;2023-04-24T01:12:54;2.95;;;2.60;;
68655;SDS011;55638;51.122;13.606;2023-04-24T01:14:27;2.10;;;1.88;;
68655;SDS011;55638;51.122;13.606;2023-04-24T01:15:58;2.53;;;2.17;;
68655;SDS011;55638;51.122;13.606;2023-04-24T01:17:32;2.30;;;2.00;;
68655;SDS011;55638;51.122;13.606;2023-04-24T01:19:05;2.30;;;2.10;;
68655;SDS011;55638;51.122;13.606;2023-04-24T01:20:39;5.00;;;2.30;;
68655;SDS011;55638;51.122;13.606;2023-04-24T01:22:12;2.20;;;2.00;;
68655;SDS011;55638;51.122;13.606;2023-04-24T01:23:45;2.67;;;2.13;;
68655;SDS011;55638;51.122;13.606;2023-04-24T01:25:17;2.60;;;2.40;;
68655;SDS011;55638;51.122;13.606;2023-04-24T01:26:49;2.08;;;1.88;;
68655;SDS011;55638;51.122;13.606;2023-04-24T01:28:22;3.53;;;2.17;;
68655;SDS011;55638;51.122;13.606;2023-04-24T01:29:54;2.88;;;2.35;;
68655;SDS011;55638;51.122;13.606;2023-04-24T01:31:26;2.65;;;2.28;;
68655;SDS011;55638;51.122;13.606;2023-04-24T01:32:59;4.00;;;2.88;;
68655;SDS011;55638;51.122;13.606;2023-04-24T01:34:31;2.80;;;2.30;;
68655;SDS011;55638;51.122;13.606;2023-04-24T01:36:03;2.40;;;2.15;;
68655;SDS011;55638;51.122;13.606;2023-04-24T01:37:36;2.63;;;2.15;;
68655;SDS011;55638;51.122;13.606;2023-04-24T01:39:11;3.10;;;2.08;;
68655;SDS011;55638;51.122;13.606;2023-04-24T01:40:43;2.78;;;2.10;;
68655;SDS011;55638;51.122;13.606;2023-04-24T01:42:15;2.05;;;1.80;;
68655;SDS011;55638;51.122;13.606;2023-04-24T01:43:47;2.10;;;1.90;;
68655;SDS011;55638;51.122;13.606;2023-04-24T01:45:20;2.80;;;1.80;;
68655;SDS011;55638;51.122;13.606;2023-04-24T01:46:52;2.38;;;2.05;;
68655;SDS011;55638;51.122;13.606;2023-04-24T01:48:25;2.58;;;1.92;;
68655;SDS011;55638;51.122;13.606;2023-04-24T01:49:57;2.22;;;1.73;;
68655;SDS011;55638;51.122;13.606;2023-04-24T01:51:29;2.53;;;1.70;;
68655;SDS011;55638;51.122;13.606;2023-04-24T01:53:01;2.47;;;1.55;;
68655;SDS011;55638;51.122;13.606;2023-04-24T01:54:33;1.63;;;1.52;;
68655;SDS011;55638;51.122;13.606;2023-04-24T01:56:06;1.60;;;1.38;;
68655;SDS011;55638;51.122;13.606;2023-04-24T01:57:38;1.63;;;1.40;;
68655;SDS011;55638;51.122;13.606;2023-04-24T01:59:10;2.15;;;1.40;;
68655;SDS011;55638;51.122;13.606;2023-04-24T02:00:43;1.80;;;1.25;;
68655;SDS011;55638;51.122;13.606;2023-04-24T02:02:14;1.95;;;1.38;;
68655;SDS011;55638;51.122;13.606;2023-04-24T02:03:47;1.98;;;1.40;;
68655;SDS011;55638;51.122;13.606;2023-04-24T02:05:19;2.05;;;1.50;;
68655;SDS011;55638;51.122;13.606;2023-04-24T02:06:51;1.80;;;1.13;;
68655;SDS011;55638;51.122;13.606;2023-04-24T02:08:23;1.80;;;1.45;;
68655;SDS011;55638;51.122;13.606;2023-04-24T02:09:55;1.75;;;1.10;;
68655;SDS011;55638;51.122;13.606;2023-04-24T02:11:27;2.08;;;1.20;;
68655;SDS011;55638;51.122;13.606;2023-04-24T02:12:59;2.60;;;1.30;;
68655;SDS011;55638;51.122;13.606;2023-04-24T02:14:32;1.23;;;1.13;;
68655;SDS011;55638;51.122;13.606;2023-04-24T02:16:03;1.20;;;1.10;;
68655;SDS011;55638;51.122;13.606;2023-04-24T02:17:36;1.10;;;1.00;;
68655;SDS011;55638;51.122;13.606;2023-04-24T02:19:08;1.73;;;1.40;;
68655;SDS011;55638;51.122;13.606;2023-04-24T02:20:39;2.15;;;1.80;;
68655;SDS011;55638;51.122;13.606;2023-04-24T02:22:11;1.55;;;1.40;;
68655;SDS011;55638;51.122;13.606;2023-04-24T02:23:43;2.03;;;1.50;;
68655;SDS011;55638;51.122;13.606;2023-04-24T02:25:16;2.08;;;1.20;;
68655;SDS011;55638;51.122;13.606;2023-04-24T02:26:48;1.88;;;1.30;;
68655;SDS011;55638;51.122;13.606;2023-04-24T02:28:20;1.70;;;1.60;;
68655;SDS011;55638;51.122;13.606;2023-04-24T02:29:54;1.67;;;1.30;;
68655;SDS011;55638;51.122;13.606;2023-04-24T02:31:26;1.90;;;1.45;;
68655;SDS011;55638;51.122;13.606;2023-04-24T02:32:58;1.85;;;1.30;;
68655;SDS011;55638;51.122;13.606;2023-04-24T02:34:31;2.47;;;1.52;;
68655;SDS011;55638;51.122;13.606;2023-04-24T02:36:03;1.60;;;1.33;;
68655;SDS011;55638;51.122;13.606;2023-04-24T02:37:35;1.65;;;1.30;;
68655;SDS011;55638;51.122;13.606;2023-04-24T02:39:07;1.80;;;1.20;;
68655;SDS011;55638;51.122;13.606;2023-04-24T02:40:39;2.33;;;1.08;;
68655;SDS011;55638;51.122;13.606;2023-04-24T02:42:11;1.55;;;1.30;;
68655;SDS011;55638;51.122;13.606;2023-04-24T02:43:43;1.15;;;1.05;;
68655;SDS011;55638;51.122;13.606;2023-04-24T02:45:15;1.63;;;1.27;;
68655;SDS011;55638;51.122;13.606;2023-04-24T02:46:47;1.65;;;1.50;;
68655;SDS011;55638;51.122;13.606;2023-04-24T02:48:20;1.63;;;1.20;;
68655;SDS011;55638;51.122;13.606;2023-04-24T02:49:52;1.13;;;1.02;;
68655;SDS011;55638;51.122;13.606;2023-04-24T02:51:24;1.35;;;1.25;;
68655;SDS011;55638;51.122;13.606;2023-04-24T02:52:56;1.55;;;1.30;;
68655;SDS011;55638;51.122;13.606;2023-04-24T02:54:28;1.58;;;0.90;;
68655;SDS011;55638;51.122;13.606;2023-04-24T02:56:00;1.67;;;1.20;;
68655;SDS011;55638;51.122;13.606;2023-04-24T02:57:32;1.75;;;1.20;;
68655;SDS011;55638;51.122;13.606;2023-04-24T02:59:04;1.35;;;0.90;;
68655;SDS011;55638;51.122;13.606;2023-04-24T03:00:36;1.48;;;1.00;;
68655;SDS011;55638;51.122;13.606;2023-04-24T03:02:07;1.40;;;1.15;;
68655;SDS011;55638;51.122;13.606;2023-04-24T03:03:39;1.40;;;1.25;;
68655;SDS011;55638;51.122;13.606;2023-04-24T03:05:11;1.67;;;0.93;;
68655;SDS011;55638;51.122;13.606;2023-04-24T03:06:43;0.90;;;0.80;;
68655;SDS011;55638;51.122;13.606;2023-04-24T03:08:15;1.00;;;0.90;;
68655;SDS011;55638;51.122;13.606;2023-04-24T03:09:47;0.90;;;0.75;;
68655;SDS011;55638;51.122;13.606;2023-04-24T03:11:19;1.13;;;0.85;;
68655;SDS011;55638;51.122;13.606;2023-04-24T03:12:51;0.93;;;0.88;;
68655;SDS011;55638;51.122;13.606;2023-04-24T03:14:23;1.30;;;0.82;;
68655;SDS011;55638;51.122;13.606;2023-04-24T03:15:55;1.00;;;0.82;;
68655;SDS011;55638;51.122;13.606;2023-04-24T03:17:27;1.23;;;0.90;;
68655;SDS011;55638;51.122;13.606;2023-04-24T03:18:58;1.33;;;0.90;;
68655;SDS011;55638;51.122;13.606;2023-04-24T03:20:34;0.98;;;0.80;;
68655;SDS011;55638;51.122;13.606;2023-04-24T03:22:06;0.88;;;0.75;;
68655;SDS011;55638;51.122;13.606;2023-04-24T03:23:38;2.03;;;1.17;;
68655;SDS011;55638;51.122;13.606;2023-04-24T03:25:11;1.05;;;0.73;;
68655;SDS011;55638;51.122;13.606;2023-04-24T03:26:44;1.00;;;0.90;;
68655;SDS011;55638;51.122;13.606;2023-04-24T03:28:25;1.02;;;0.93;;
68655;SDS011;55638;51.122;13.606;2023-04-24T03:30:02;1.10;;;0.90;;
68655;SDS011;55638;51.122;13.606;2023-04-24T03:31:46;1.10;;;0.80;;
68655;SDS011;55638;51.122;13.606;2023-04-24T03:33:18;0.75;;;0.75;;
68655;SDS011;55638;51.122;13.606;2023-04-24T03:35:00;1.25;;;0.70;;
68655;SDS011;55638;51.122;13.606;2023-04-24T03:36:32;1.42;;;0.88;;
68655;SDS011;55638;51.122;13.606;2023-04-24T03:38:04;0.90;;;0.70;;
68655;SDS011;55638;51.122;13.606;2023-04-24T03:39:51;0.57;;;0.50;;
68655;SDS011;55638;51.122;13.606;2023-04-24T03:41:27;1.23;;;0.70;;
68655;SDS011;55638;51.122;13.606;2023-04-24T03:43:18;0.95;;;0.70;;
68655;SDS011;55638;51.122;13.606;2023-04-24T03:44:50;0.95;;;0.77;;
68655;SDS011;55638;51.122;13.606;2023-04-24T03:46:26;0.70;;;0.70;;
68655;SDS011;55638;51.122;13.606;2023-04-24T03:48:02;0.70;;;0.50;;
68655;SDS011;55638;51.122;13.606;2023-04-24T03:49:34;0.93;;;0.60;;
68655;SDS011;55638;51.122;13.606;2023-04-24T03:51:08;1.80;;;0.55;;
68655;SDS011;55638;51.122;13.606;2023-04-24T03:52:42;0.70;;;0.60;;
68655;SDS011;55638;51.122;13.606;2023-04-24T03:54:19;1.23;;;0.60;;
68655;SDS011;55638;51.122;13.606;2023-04-24T03:55:51;0.60;;;0.50;;
68655;SDS011;55638;51.122;13.606;2023-04-24T03:57:24;1.13;;;0.57;;
68655;SDS011;55638;51.122;13.606;2023-04-24T03:59:14;1.63;;;0.55;;
68655;SDS011;55638;51.122;13.606;2023-04-24T04:00:49;0.55;;;0.40;;
68655;SDS011;55638;51.122;13.606;2023-04-24T04:02:44;0.60;;;0.55;;
68655;SDS011;55638;51.122;13.606;2023-04-24T04:04:16;1.55;;;0.60;;
68655;SDS011;55638;51.122;13.606;2023-04-24T04:05:49;0.40;;;0.38;;
68655;SDS011;55638;51.122;13.606;2023-04-24T04:07:21;1.00;;;0.55;;
68655;SDS011;55638;51.122;13.606;2023-04-24T04:08:53;0.80;;;0.50;;
68655;SDS011;55638;51.122;13.606;2023-04-24T04:10:25;0.88;;;0.43;;
68655;SDS011;55638;51.122;13.606;2023-04-24T04:11:57;0.77;;;0.50;;
68655;SDS011;55638;51.122;13.606;2023-04-24T04:13:29;0.52;;;0.40;;
68655;SDS011;55638;51.122;13.606;2023-04-24T04:15:01;0.75;;;0.50;;
68655;SDS011;55638;51.122;13.606;2023-04-24T04:16:33;1.35;;;0.40;;
68655;SDS011;55638;51.122;13.606;2023-04-24T04:18:07;0.70;;;0.60;;
68655;SDS011;55638;51.122;13.606;2023-04-24T04:19:39;0.43;;;0.40;;
68655;SDS011;55638;51.122;13.606;2023-04-24T04:21:12;0.90;;;0.40;;
68655;SDS011;55638;51.122;13.606;2023-04-24T04:22:44;0.82;;;0.55;;
68655;SDS011;55638;51.122;13.606;2023-04-24T04:24:21;0.75;;;0.50;;
68655;SDS011;55638;51.122;13.606;2023-04-24T04:25:54;0.80;;;0.40;;
68655;SDS011;55638;51.122;13.606;2023-04-24T04:27:30;0.77;;;0.52;;
68655;SDS011;55638;51.122;13.606;2023-04-24T04:29:08;1.15;;;0.68;;
68655;SDS011;55638;51.122;13.606;2023-04-24T04:30:43;1.13;;;0.60;;
68655;SDS011;55638;51.122;13.606;2023-04-24T04:32:16;0.38;;;0.38;;
68655;SDS011;55638;51.122;13.606;2023-04-24T04:33:48;1.15;;;0.60;;
68655;SDS011;55638;51.122;13.606;2023-04-24T04:37:22;1.27;;;0.40;;
68655;SDS011;55638;51.122;13.606;2023-04-24T04:39:07;0.73;;;0.40;;
68655;SDS011;55638;51.122;13.606;2023-04-24T04:40:51;0.60;;;0.40;;
68655;SDS011;55638;51.122;13.606;2023-04-24T04:42:25;0.50;;;0.50;;
68655;SDS011;55638;51.122;13.606;2023-04-24T04:43:58;1.73;;;0.50;;
68655;SDS011;55638;51.122;13.606;2023-04-24T04:45:30;0.52;;;0.45;;
68655;SDS011;55638;51.122;13.606;2023-04-24T04:47:22;0.88;;;0.40;;
68655;SDS011;55638;51.122;13.606;2023-04-24T04:48:57;0.73;;;0.50;;
68655;SDS011;55638;51.122;13.606;2023-04-24T04:50:29;1.00;;;0.60;;
68655;SDS011;55638;51.122;13.606;2023-04-24T04:52:06;0.95;;;0.40;;
68655;SDS011;55638;51.122;13.606;2023-04-24T04:53:38;0.60;;;0.40;;
68655;SDS011;55638;51.122;13.606;2023-04-24T04:55:10;0.95;;;0.60;;
68655;SDS011;55638;51.122;13.606;2023-04-24T04:57:17;0.50;;;0.50;;
68655;SDS011;55638;51.122;13.606;2023-04-24T04:58:49;0.73;;;0.40;;
68655;SDS011;55638;51.122;13.606;2023-04-24T05:00:22;0.77;;;0.70;;
68655;SDS011;55638;51.122;13.606;2023-04-24T05:01:57;0.60;;;0.43;;
68655;SDS011;55638;51.122;13.606;2023-04-24T05:03:29;0.93;;;0.68;;
68655;SDS011;55638;51.122;13.606;2023-04-24T05:05:06;0.88;;;0.50;;
68655;SDS011;55638;51.122;13.606;2023-04-24T05:06:39;0.73;;;0.50;;
68655;SDS011;55638;51.122;13.606;2023-04-24T05:08:11;1.73;;;1.02;;
68655;SDS011;55638;51.122;13.606;2023-04-24T05:09:57;1.80;;;0.73;;
68655;SDS011;55638;51.122;13.606;2023-04-24T05:11:29;1.60;;;0.88;;
68655;SDS011;55638;51.122;13.606;2023-04-24T05:13:03;1.80;;;0.80;;
68655;SDS011;55638;51.122;13.606;2023-04-24T05:14:36;1.05;;;0.85;;
68655;SDS011;55638;51.122;13.606;2023-04-24T05:16:08;0.90;;;0.77;;
68655;SDS011;55638;51.122;13.606;2023-04-24T05:17:40;2.05;;;1.20;;
68655;SDS011;55638;51.122;13.606;2023-04-24T05:19:13;1.25;;;0.85;;
68655;SDS011;55638;51.122;13.606;2023-04-24T05:20:46;1.50;;;0.90;;
68655;SDS011;55638;51.122;13.606;2023-04-24T05:22:18;1.30;;;0.90;;
68655;SDS011;55638;51.122;13.606;2023-04-24T05:23:55;1.30;;;0.77;;
68655;SDS011;55638;51.122;13.606;2023-04-24T05:25:56;1.15;;;0.70;;
68655;SDS011;55638;51.122;13.606;2023-04-24T05:27:28;1.63;;;0.80;;
68655;SDS011;55638;51.122;13.606;2023-04-24T05:29:00;1.00;;;0.60;;
68655;SDS011;55638;51.122;13.606;2023-04-24T05:30:32;0.70;;;0.60;;
68655;SDS011;55638;51.122;13.606;2023-04-24T05:32:04;0.60;;;0.60;;
68655;SDS011;55638;51.122;13.606;2023-04-24T05:33:36;0.85;;;0.70;;
68655;SDS011;55638;51.122;13.606;2023-04-24T05:35:08;0.60;;;0.50;;
68655;SDS011;55638;51.122;13.606;2023-04-24T05:36:40;0.88;;;0.60;;
68655;SDS011;55638;51.122;13.606;2023-04-24T05:38:12;0.80;;;0.60;;
68655;SDS011;55638;51.122;13.606;2023-04-24T05:39:44;0.63;;;0.50;;
68655;SDS011;55638;51.122;13.606;2023-04-24T05:41:17;0.52;;;0.40;;
68655;SDS011;55638;51.122;13.606;2023-04-24T05:42:49;0.55;;;0.40;;
68655;SDS011;55638;51.122;13.606;2023-04-24T05:44:20;0.60;;;0.50;;
68655;SDS011;55638;51.122;13.606;2023-04-24T05:45:52;0.60;;;0.50;;
68655;SDS011;55638;51.122;13.606;2023-04-24T05:47:25;0.82;;;0.43;;
68655;SDS011;55638;51.122;13.606;2023-04-24T05:48:58;0.85;;;0.52;;
68655;SDS011;55638;51.122;13.606;2023-04-24T05:50:30;0.85;;;0.57;;
68655;SDS011;55638;51.122;13.606;2023-04-24T05:52:06;0.47;;;0.40;;
68655;SDS011;55638;51.122;13.606;2023-04-24T05:53:42;0.80;;;0.50;;
68655;SDS011;55638;51.122;13.606;2023-04-24T05:55:14;1.20;;;0.50;;
68655;SDS011;55638;51.122;13.606;2023-04-24T05:56:50;1.30;;;0.50;;
68655;SDS011;55638;51.122;13.606;2023-04-24T05:58:32;0.80;;;0.50;;
68655;SDS011;55638;51.122;13.606;2023-04-24T06:00:05;1.10;;;0.50;;
68655;SDS011;55638;51.122;13.606;2023-04-24T06:01:44;0.65;;;0.60;;
68655;SDS011;55638;51.122;13.606;2023-04-24T06:03:20;1.65;;;0.40;;
68655;SDS011;55638;51.122;13.606;2023-04-24T06:04:53;1.13;;;0.73;;
68655;SDS011;55638;51.122;13.606;2023-04-24T06:06:25;0.40;;;0.30;;
68655;SDS011;55638;51.122;13.606;2023-04-24T06:07:58;0.52;;;0.50;;
68655;SDS011;55638;51.122;13.606;2023-04-24T06:09:35;0.88;;;0.60;;
68655;SDS011;55638;51.122;13.606;2023-04-24T06:11:07;0.68;;;0.38;;
68655;SDS011;55638;51.122;13.606;2023-04-24T06:12:39;0.68;;;0.50;;
68655;SDS011;55638;51.122;13.606;2023-04-24T06:14:16;1.85;;;0.45;;
68655;SDS011;55638;51.122;13.606;2023-04-24T06:16:18;1.00;;;0.60;;
68655;SDS011;55638;51.122;13.606;2023-04-24T06:17:56;1.50;;;0.57;;
68655;SDS011;55638;51.122;13.606;2023-04-24T06:19:30;1.20;;;0.60;;
68655;SDS011;55638;51.122;13.606;2023-04-24T06:21:02;0.90;;;0.50;;
68655;SDS011;55638;51.122;13.606;2023-04-24T06:22:34;1.63;;;0.65;;
68655;SDS011;55638;51.122;13.606;2023-04-24T06:24:07;2.65;;;0.50;;
68655;SDS011;55638;51.122;13.606;2023-04-24T06:25:39;0.80;;;0.38;;
68655;SDS011;55638;51.122;13.606;2023-04-24T06:27:11;1.13;;;0.63;;
68655;SDS011;55638;51.122;13.606;2023-04-24T06:28:45;0.57;;;0.57;;
68655;SDS011;55638;51.122;13.606;2023-04-24T06:30:17;0.40;;;0.40;;
68655;SDS011;55638;51.122;13.606;2023-04-24T06:31:49;1.30;;;0.80;;
68655;SDS011;55638;51.122;13.606;2023-04-24T06:33:21;1.02;;;0.82;;
68655;SDS011;55638;51.122;13.606;2023-04-24T06:34:54;1.40;;;0.90;;
68655;SDS011;55638;51.122;13.606;2023-04-24T06:36:28;1.98;;;0.90;;
68655;SDS011;55638;51.122;13.606;2023-04-24T06:38:01;1.42;;;0.60;;
68655;SDS011;55638;51.122;13.606;2023-04-24T06:39:32;0.93;;;0.73;;
68655;SDS011;55638;51.122;13.606;2023-04-24T06:41:04;1.00;;;0.60;;
68655;SDS011;55638;51.122;13.606;2023-04-24T06:42:36;0.90;;;0.70;;
68655;SDS011;55638;51.122;13.606;2023-04-24T06:44:12;1.67;;;0.70;;
68655;SDS011;55638;51.122;13.606;2023-04-24T06:45:46;1.10;;;0.55;;
68655;SDS011;55638;51.122;13.606;2023-04-24T06:47:18;0.98;;;0.60;;
68655;SDS011;55638;51.122;13.606;2023-04-24T06:48:50;1.13;;;0.65;;
68655;SDS011;55638;51.122;13.606;2023-04-24T06:50:22;1.20;;;0.70;;
68655;SDS011;55638;51.122;13.606;2023-04-24T06:51:54;1.10;;;0.50;;
68655;SDS011;55638;51.122;13.606;2023-04-24T06:53:26;0.70;;;0.43;;
68655;SDS011;55638;51.122;13.606;2023-04-24T06:55:02;0.38;;;0.30;;
68655;SDS011;55638;51.122;13.606;2023-04-24T06:56:36;0.80;;;0.45;;
68655;SDS011;55638;51.122;13.606;2023-04-24T06:58:08;1.58;;;0.47;;
68655;SDS011;55638;51.122;13.606;2023-04-24T06:59:40;0.47;;;0.47;;
68655;SDS011;55638;51.122;13.606;2023-04-24T07:01:12;1.05;;;0.57;;
68655;SDS011;55638;51.122;13.606;2023-04-24T07:02:44;0.68;;;0.40;;
68655;SDS011;55638;51.122;13.606;2023-04-24T07:04:16;0.52;;;0.40;;
68655;SDS011;55638;51.122;13.606;2023-04-24T07:05:49;0.38;;;0.30;;
68655;SDS011;55638;51.122;13.606;2023-04-24T07:07:21;0.73;;;0.30;;
68655;SDS011;55638;51.122;13.606;2023-04-24T07:08:55;0.47;;;0.40;;
68655;SDS011;55638;51.122;13.606;2023-04-24T07:10:27;1.13;;;0.40;;
68655;SDS011;55638;51.122;13.606;2023-04-24T07:12:00;0.70;;;0.40;;
68655;SDS011;55638;51.122;13.606;2023-04-24T07:13:32;1.60;;;0.30;;
68655;SDS011;55638;51.122;13.606;2023-04-24T07:15:04;0.90;;;0.47;;
68655;SDS011;55638;51.122;13.606;2023-04-24T07:16:37;0.60;;;0.60;;
68655;SDS011;55638;51.122;13.606;2023-04-24T07:18:09;0.40;;;0.30;;
68655;SDS011;55638;51.122;13.606;2023-04-24T07:19:42;1.25;;;0.50;;
68655;SDS011;55638;51.122;13.606;2023-04-24T07:21:14;1.13;;;0.43;;
68655;SDS011;55638;51.122;13.606;2023-04-24T07:22:46;0.57;;;0.35;;
68655;SDS011;55638;51.122;13.606;2023-04-24T07:24:19;0.60;;;0.30;;
68655;SDS011;55638;51.122;13.606;2023-04-24T07:25:53;2.53;;;0.80;;
68655;SDS011;55638;51.122;13.606;2023-04-24T07:27:25;2.85;;;1.23;;
68655;SDS011;55638;51.122;13.606;2023-04-24T07:28:57;2.35;;;1.00;;
68655;SDS011;55638;51.122;13.606;2023-04-24T07:30:29;1.35;;;0.60;;
68655;SDS011;55638;51.122;13.606;2023-04-24T07:32:01;0.63;;;0.57;;
68655;SDS011;55638;51.122;13.606;2023-04-24T07:33:34;0.55;;;0.30;;
68655;SDS011;55638;51.122;13.606;2023-04-24T07:35:07;1.17;;;0.50;;
68655;SDS011;55638;51.122;13.606;2023-04-24T07:36:41;0.95;;;0.40;;
68655;SDS011;55638;51.122;13.606;2023-04-24T07:38:13;0.88;;;0.50;;
68655;SDS011;55638;51.122;13.606;2023-04-24T07:39:45;0.40;;;0.30;;
68655;SDS011;55638;51.122;13.606;2023-04-24T07:41:17;0.80;;;0.30;;
68655;SDS011;55638;51.122;13.606;2023-04-24T07:42:48;0.88;;;0.32;;
68655;SDS011;55638;51.122;13.606;2023-04-24T07:44:20;0.85;;;0.40;;
68655;SDS011;55638;51.122;13.606;2023-04-24T07:45:52;0.75;;;0.40;;
68655;SDS011;55638;51.122;13.606;2023-04-24T07:47:25;0.40;;;0.28;;
68655;SDS011;55638;51.122;13.606;2023-04-24T07:48:57;0.60;;;0.30;;
68655;SDS011;55638;51.122;13.606;2023-04-24T07:50:44;0.47;;;0.30;;
68655;SDS011;55638;51.122;13.606;2023-04-24T07:52:16;0.68;;;0.50;;
68655;SDS011;55638;51.122;13.606;2023-04-24T07:53:48;0.52;;;0.30;;
68655;SDS011;55638;51.122;13.606;2023-04-24T07:55:20;1.15;;;0.35;;
68655;SDS011;55638;51.122;13.606;2023-04-24T07:56:56;0.50;;;0.20;;
68655;SDS011;55638;51.122;13.606;2023-04-24T07:58:28;0.30;;;0.20;;
68655;SDS011;55638;51.122;13.606;2023-04-24T08:00:00;0.85;;;0.28;;
68655;SDS011;55638;51.122;13.606;2023-04-24T08:01:41;1.77;;;0.35;;
68655;SDS011;55638;51.122;13.606;2023-04-24T08:03:13;1.15;;;0.30;;
68655;SDS011;55638;51.122;13.606;2023-04-24T08:04:45;1.05;;;0.30;;
68655;SDS011;55638;51.122;13.606;2023-04-24T08:06:17;0.30;;;0.30;;
68655;SDS011;55638;51.122;13.606;2023-04-24T08:07:50;1.63;;;0.30;;
68655;SDS011;55638;51.122;13.606;2023-04-24T08:09:21;0.68;;;0.30;;
68655;SDS011;55638;51.122;13.606;2023-04-24T08:10:54;0.77;;;0.30;;
68655;SDS011;55638;51.122;13.606;2023-04-24T08:12:28;0.98;;;0.30;;
68655;SDS011;55638;51.122;13.606;2023-04-24T08:14:00;0.80;;;0.40;;
68655;SDS011;55638;51.122;13.606;2023-04-24T08:15:32;0.43;;;0.32;;
68655;SDS011;55638;51.122;13.606;2023-04-24T08:17:04;0.52;;;0.20;;
68655;SDS011;55638;51.122;13.606;2023-04-24T08:18:36;0.38;;;0.30;;
68655;SDS011;55638;51.122;13.606;2023-04-24T08:20:08;1.40;;;0.40;;
68655;SDS011;55638;51.122;13.606;2023-04-24T08:21:45;1.42;;;0.40;;
68655;SDS011;55638;51.122;13.606;2023-04-24T08:23:17;1.27;;;0.40;;
68655;SDS011;55638;51.122;13.606;2023-04-24T08:24:49;0.50;;;0.40;;
68655;SDS011;55638;51.122;13.606;2023-04-24T08:26:21;0.50;;;0.30;;
68655;SDS011;55638;51.122;13.606;2023-04-24T08:27:53;0.40;;;0.30;;
68655;SDS011;55638;51.122;13.606;2023-04-24T08:29:26;0.52;;;0.30;;
68655;SDS011;55638;51.122;13.606;2023-04-24T08:30:58;0.28;;;0.20;;
68655;SDS011;55638;51.122;13.606;2023-04-24T08:32:30;0.55;;;0.28;;
68655;SDS011;55638;51.122;13.606;2023-04-24T08:34:02;0.63;;;0.30;;
68655;SDS011;55638;51.122;13.606;2023-04-24T08:35:34;1.30;;;0.40;;
68655;SDS011;55638;51.122;13.606;2023-04-24T08:37:06;1.02;;;0.20;;
68655;SDS011;55638;51.122;13.606;2023-04-24T08:38:37;0.55;;;0.30;;
68655;SDS011;55638;51.122;13.606;2023-04-24T08:40:13;1.45;;;0.40;;
68655;SDS011;55638;51.122;13.606;2023-04-24T08:41:46;0.45;;;0.40;;
68655;SDS011;55638;51.122;13.606;2023-04-24T08:43:21;1.88;;;0.70;;
68655;SDS011;55638;51.122;13.606;2023-04-24T08:44:54;1.85;;;0.63;;
68655;SDS011;55638;51.122;13.606;2023-04-24T08:46:26;1.15;;;0.35;;
68655;SDS011;55638;51.122;13.606;2023-04-24T08:47:59;1.55;;;0.30;;
68655;SDS011;55638;51.122;13.606;2023-04-24T08:49:31;0.57;;;0.30;;
68655;SDS011;55638;51.122;13.606;2023-04-24T08:51:08;1.13;;;0.30;;
68655;SDS011;55638;51.122;13.606;2023-04-24T08:52:40;0.98;;;0.20;;
68655;SDS011;55638;51.122;13.606;2023-04-24T08:54:14;0.35;;;0.30;;
68655;SDS011;55638;51.122;13.606;2023-04-24T08:55:47;0.47;;;0.30;;
68655;SDS011;55638;51.122;13.606;2023-04-24T08:57:19;0.95;;;0.22;;
68655;SDS011;55638;51.122;13.606;2023-04-24T08:58:51;0.25;;;0.20;;
68655;SDS011;55638;51.122;13.606;2023-04-24T09:00:25;2.03;;;0.30;;
68655;SDS011;55638;51.122;13.606;2023-04-24T09:01:57;0.30;;;0.30;;
68655;SDS011;55638;51.122;13.606;2023-04-24T09:03:29;0.43;;;0.20;;
68655;SDS011;55638;51.122;13.606;2023-04-24T09:05:03;0.22;;;0.20;;
68655;SDS011;55638;51.122;13.606;2023-04-24T09:06:35;1.02;;;0.30;;
68655;SDS011;55638;51.122;13.606;2023-04-24T09:08:07;0.40;;;0.22;;
68655;SDS011;55638;51.122;13.606;2023-04-24T09:09:39;1.58;;;0.30;;
68655;SDS011;55638;51.122;13.606;2023-04-24T09:11:13;0.90;;;0.50;;
68655;SDS011;55638;51.122;13.606;2023-04-24T09:12:45;0.40;;;0.30;;
68655;SDS011;55638;51.122;13.606;2023-04-24T09:14:18;0.50;;;0.43;;
68655;SDS011;55638;51.122;13.606;2023-04-24T09:15:51;0.43;;;0.30;;